createdAt,value
2019-03-08T00:00:39.051Z,977.43
2019-03-08T00:01:39.275Z,977.43
2019-03-08T00:02:39.499Z,977.35
2019-03-08T00:03:39.723Z,977.39
2019-03-08T00:04:39.947Z,977.38
2019-03-08T00:05:40.169Z,977.39
2019-03-08T00:06:40.393Z,977.46
2019-03-08T00:07:40.615Z,977.44
2019-03-08T00:08:40.840Z,977.34
2019-03-08T00:09:41.063Z,977.43
2019-03-08T00:10:41.289Z,977.33
2019-03-08T00:11:41.510Z,977.31
2019-03-08T00:12:41.732Z,977.34
2019-03-08T00:13:41.956Z,977.41
2019-03-08T00:14:42.177Z,977.40
2019-03-08T00:15:42.403Z,977.39
2019-03-08T00:16:42.624Z,977.39
2019-03-08T00:17:42.846Z,977.41
2019-03-08T00:18:43.070Z,977.46
2019-03-08T00:19:43.294Z,977.40
2019-03-08T00:20:43.518Z,977.49
2019-03-08T00:21:43.741Z,977.46
2019-03-08T00:22:43.965Z,977.50
2019-03-08T00:23:44.190Z,977.54
2019-03-08T00:24:44.411Z,977.52
2019-03-08T00:25:44.637Z,977.55
2019-03-08T00:26:44.861Z,977.55
2019-03-08T00:27:45.087Z,977.54
2019-03-08T00:28:45.310Z,977.60
2019-03-08T00:29:45.533Z,977.48
2019-03-08T00:30:45.759Z,977.48
2019-03-08T00:31:45.979Z,977.52
2019-03-08T00:32:46.202Z,977.52
2019-03-08T00:33:46.425Z,977.52
2019-03-08T00:34:46.651Z,977.54
2019-03-08T00:35:46.873Z,977.55
2019-03-08T00:36:47.099Z,977.53
2019-03-08T00:37:47.322Z,977.58
2019-03-08T00:38:47.558Z,977.60
2019-03-08T00:39:47.768Z,977.62
2019-03-08T00:40:47.991Z,977.63
2019-03-08T00:41:48.220Z,977.61
2019-03-08T00:42:48.440Z,977.67
2019-03-08T00:43:48.663Z,977.73
2019-03-08T00:44:48.888Z,977.63
2019-03-08T00:45:49.114Z,977.65
2019-03-08T00:46:49.337Z,977.65
2019-03-08T00:47:49.558Z,977.68
2019-03-08T00:48:49.783Z,977.80
2019-03-08T00:49:50.005Z,977.78
2019-03-08T00:50:50.227Z,977.79
2019-03-08T00:51:50.479Z,977.85
2019-03-08T00:52:50.675Z,977.72
2019-03-08T00:53:50.898Z,977.88
2019-03-08T00:54:51.121Z,977.79
2019-03-08T00:55:51.345Z,977.76
2019-03-08T00:56:51.565Z,977.72
2019-03-08T00:57:51.790Z,977.79
2019-03-08T00:58:52.012Z,977.76
2019-03-08T00:59:52.235Z,977.79
2019-03-08T01:00:52.461Z,977.77
2019-03-08T01:01:52.684Z,977.83
2019-03-08T01:02:52.907Z,977.76
2019-03-08T01:03:53.135Z,977.79
2019-03-08T01:04:53.363Z,977.79
2019-03-08T01:05:53.585Z,977.79
2019-03-08T01:06:53.808Z,977.75
2019-03-08T01:07:54.033Z,977.80
2019-03-08T01:08:54.257Z,977.87
2019-03-08T01:09:54.480Z,977.88
2019-03-08T01:10:54.706Z,977.84
2019-03-08T01:11:54.930Z,977.98
2019-03-08T01:12:55.154Z,977.93
2019-03-08T01:13:55.379Z,977.91
2019-03-08T01:14:55.601Z,977.94
2019-03-08T01:15:55.826Z,978.03
2019-03-08T01:16:56.048Z,978.11
2019-03-08T01:17:56.271Z,978.05
2019-03-08T01:18:56.498Z,977.98
2019-03-08T01:19:56.718Z,978.04
2019-03-08T01:20:56.945Z,978.06
2019-03-08T01:21:57.165Z,978.06
2019-03-08T01:22:57.387Z,978.11
2019-03-08T01:23:57.609Z,978.06
2019-03-08T01:24:57.833Z,978.12
2019-03-08T01:25:58.057Z,978.12
2019-03-08T01:26:58.286Z,978.18
2019-03-08T01:27:58.510Z,978.09
2019-03-08T01:28:58.740Z,978.16
2019-03-08T01:29:58.956Z,978.18
2019-03-08T01:30:59.183Z,978.20
2019-03-08T01:31:59.406Z,978.23
2019-03-08T01:32:59.626Z,978.20
2019-03-08T01:33:59.849Z,978.24
2019-03-08T01:35:00.073Z,978.13
2019-03-08T01:36:00.296Z,978.16
2019-03-08T01:37:00.520Z,978.13
2019-03-08T01:38:00.748Z,978.19
2019-03-08T01:39:00.970Z,978.13
2019-03-08T01:40:01.192Z,978.15
2019-03-08T01:41:01.413Z,978.12
2019-03-08T01:42:01.636Z,978.14
2019-03-08T01:43:01.859Z,978.14
2019-03-08T01:44:02.085Z,978.15
2019-03-08T01:45:03.773Z,978.10
2019-03-08T01:46:02.528Z,978.14
2019-03-08T01:47:02.754Z,978.16
2019-03-08T01:48:02.977Z,978.14
2019-03-08T01:49:03.204Z,978.18
2019-03-08T01:50:03.423Z,978.23
2019-03-08T01:51:03.645Z,978.19
2019-03-08T01:52:03.866Z,978.24
2019-03-08T01:53:04.090Z,978.17
2019-03-08T01:54:04.311Z,978.20
2019-03-08T01:55:04.538Z,978.23
2019-03-08T01:56:04.760Z,978.14
2019-03-08T01:57:04.984Z,978.17
2019-03-08T01:58:05.207Z,978.09
2019-03-08T01:59:05.429Z,978.12
2019-03-08T02:00:05.653Z,978.11
2019-03-08T02:01:05.874Z,978.15
2019-03-08T02:02:06.099Z,978.17
2019-03-08T02:03:06.323Z,978.22
2019-03-08T02:04:06.546Z,978.21
2019-03-08T02:05:06.774Z,978.22
2019-03-08T02:06:06.996Z,978.12
2019-03-08T02:07:07.218Z,978.17
2019-03-08T02:08:07.439Z,978.18
2019-03-08T02:09:07.664Z,978.17
2019-03-08T02:10:07.887Z,978.22
2019-03-08T02:11:08.112Z,978.18
2019-03-08T02:12:08.336Z,978.16
2019-03-08T02:13:08.557Z,978.17
2019-03-08T02:14:08.784Z,978.14
2019-03-08T02:15:09.005Z,978.12
2019-03-08T02:16:09.227Z,978.09
2019-03-08T02:17:09.449Z,978.17
2019-03-08T02:18:09.673Z,978.15
2019-03-08T02:19:09.898Z,978.21
2019-03-08T02:20:10.118Z,978.16
2019-03-08T02:21:10.341Z,978.33
2019-03-08T02:22:10.567Z,978.29
2019-03-08T02:23:10.787Z,978.31
2019-03-08T02:24:11.012Z,978.31
2019-03-08T02:25:11.233Z,978.29
2019-03-08T02:26:11.459Z,978.32
2019-03-08T02:27:11.680Z,978.25
2019-03-08T02:28:11.906Z,978.26
2019-03-08T02:29:12.126Z,978.26
2019-03-08T02:30:12.634Z,978.27
2019-03-08T02:31:12.620Z,978.24
2019-03-08T02:32:12.842Z,978.28
2019-03-08T02:33:13.064Z,978.24
2019-03-08T02:34:13.287Z,978.26
2019-03-08T02:35:13.512Z,978.23
2019-03-08T02:36:13.734Z,978.15
2019-03-08T02:37:13.955Z,978.17
2019-03-08T02:38:14.177Z,978.24
2019-03-08T02:39:14.402Z,978.17
2019-03-08T02:40:14.625Z,978.19
2019-03-08T02:41:14.849Z,978.18
2019-03-08T02:42:15.072Z,978.10
2019-03-08T02:43:15.295Z,978.12
2019-03-08T02:44:15.521Z,978.18
2019-03-08T02:45:15.741Z,978.16
2019-03-08T02:46:15.962Z,978.14
2019-03-08T02:47:16.183Z,978.13
2019-03-08T02:48:16.409Z,978.11
2019-03-08T02:49:16.631Z,978.14
2019-03-08T02:50:16.856Z,978.12
2019-03-08T02:51:17.081Z,978.15
2019-03-08T02:52:17.307Z,978.23
2019-03-08T02:53:17.529Z,978.23
2019-03-08T02:54:17.753Z,978.31
2019-03-08T02:55:17.979Z,978.20
2019-03-08T02:56:18.198Z,978.24
2019-03-08T02:57:18.422Z,978.26
2019-03-08T02:58:18.644Z,978.27
2019-03-08T02:59:18.869Z,978.29
2019-03-08T03:00:19.240Z,978.19
2019-03-08T03:01:19.285Z,978.16
2019-03-08T03:02:19.491Z,978.27
2019-03-08T03:03:19.715Z,978.24
2019-03-08T03:04:19.939Z,978.28
2019-03-08T03:05:20.166Z,978.33
2019-03-08T03:06:20.385Z,978.32
2019-03-08T03:07:20.614Z,978.30
2019-03-08T03:08:20.830Z,978.31
2019-03-08T03:09:21.055Z,978.32
2019-03-08T03:10:21.276Z,978.27
2019-03-08T03:11:21.500Z,978.27
2019-03-08T03:12:21.725Z,978.25
2019-03-08T03:13:21.950Z,978.01
2019-03-08T03:14:22.175Z,978.19
2019-03-08T03:15:22.398Z,978.25
2019-03-08T03:16:22.621Z,978.24
2019-03-08T03:17:22.843Z,978.24
2019-03-08T03:18:23.065Z,978.33
2019-03-08T03:19:23.287Z,978.27
2019-03-08T03:20:23.512Z,978.29
2019-03-08T03:21:23.736Z,978.20
2019-03-08T03:22:23.962Z,978.35
2019-03-08T03:23:24.184Z,978.32
2019-03-08T03:24:24.411Z,978.27
2019-03-08T03:25:24.632Z,978.30
2019-03-08T03:26:24.854Z,978.23
2019-03-08T03:27:25.077Z,978.25
2019-03-08T03:28:25.303Z,978.28
2019-03-08T03:29:25.527Z,978.38
2019-03-08T03:30:25.750Z,978.43
2019-03-08T03:31:25.977Z,978.40
2019-03-08T03:32:26.200Z,978.42
2019-03-08T03:33:26.422Z,978.47
2019-03-08T03:34:26.645Z,978.46
2019-03-08T03:35:26.871Z,978.45
2019-03-08T03:36:27.091Z,978.44
2019-03-08T03:37:27.317Z,978.41
2019-03-08T03:38:27.537Z,978.39
2019-03-08T03:39:27.762Z,978.31
2019-03-08T03:40:27.984Z,978.38
2019-03-08T03:41:28.208Z,978.36
2019-03-08T03:42:28.430Z,978.36
2019-03-08T03:43:28.655Z,978.39
2019-03-08T03:44:28.878Z,978.52
2019-03-08T03:45:29.103Z,978.57
2019-03-08T03:46:29.328Z,978.50
2019-03-08T03:47:29.552Z,978.61
2019-03-08T03:48:29.778Z,978.47
2019-03-08T03:49:30.001Z,978.50
2019-03-08T03:50:30.226Z,978.57
2019-03-08T03:51:30.452Z,978.63
2019-03-08T03:52:30.674Z,978.63
2019-03-08T03:53:30.897Z,978.64
2019-03-08T03:54:31.119Z,978.58
2019-03-08T03:55:31.342Z,978.65
2019-03-08T03:56:31.566Z,978.64
2019-03-08T03:57:31.793Z,978.73
2019-03-08T03:58:32.013Z,978.67
2019-03-08T03:59:32.235Z,978.71
2019-03-08T04:00:32.459Z,978.75
2019-03-08T04:01:32.685Z,978.78
2019-03-08T04:02:32.907Z,978.78
2019-03-08T04:03:33.130Z,978.74
2019-03-08T04:04:33.354Z,978.78
2019-03-08T04:05:33.581Z,978.76
2019-03-08T04:06:33.804Z,978.85
2019-03-08T04:07:34.025Z,978.74
2019-03-08T04:08:34.251Z,978.81
2019-03-08T04:09:34.472Z,978.85
2019-03-08T04:10:34.697Z,978.81
2019-03-08T04:11:34.918Z,978.82
2019-03-08T04:12:35.144Z,978.83
2019-03-08T04:13:35.365Z,978.88
2019-03-08T04:14:35.588Z,978.88
2019-03-08T04:15:35.813Z,978.88
2019-03-08T04:16:36.036Z,978.85
2019-03-08T04:17:36.257Z,978.97
2019-03-08T04:18:36.484Z,978.93
2019-03-08T04:19:36.703Z,978.96
2019-03-08T04:20:36.927Z,979.01
2019-03-08T04:21:37.149Z,978.94
2019-03-08T04:22:37.376Z,978.96
2019-03-08T04:23:37.597Z,978.96
2019-03-08T04:24:37.817Z,978.96
2019-03-08T04:25:38.041Z,978.99
2019-03-08T04:26:38.265Z,979.00
2019-03-08T04:27:38.487Z,978.99
2019-03-08T04:28:38.711Z,978.95
2019-03-08T04:29:38.936Z,979.03
2019-03-08T04:30:39.159Z,979.02
2019-03-08T04:31:39.382Z,979.02
2019-03-08T04:32:39.610Z,979.04
2019-03-08T04:33:39.877Z,979.00
2019-03-08T04:34:40.054Z,978.97
2019-03-08T04:35:40.282Z,979.01
2019-03-08T04:36:40.501Z,979.00
2019-03-08T04:37:40.725Z,979.02
2019-03-08T04:38:40.948Z,978.99
2019-03-08T04:39:41.175Z,979.03
2019-03-08T04:40:41.398Z,979.07
2019-03-08T04:41:41.619Z,979.04
2019-03-08T04:42:41.852Z,979.10
2019-03-08T04:43:42.068Z,979.06
2019-03-08T04:44:42.289Z,979.16
2019-03-08T04:45:42.517Z,979.14
2019-03-08T04:46:42.739Z,979.10
2019-03-08T04:47:42.980Z,979.14
2019-03-08T04:48:43.199Z,979.13
2019-03-08T04:49:43.420Z,979.16
2019-03-08T04:50:43.644Z,979.17
2019-03-08T04:51:43.866Z,979.21
2019-03-08T04:52:44.090Z,979.18
2019-03-08T04:53:44.315Z,979.20
2019-03-08T04:54:44.538Z,979.18
2019-03-08T04:55:44.762Z,979.31
2019-03-08T04:56:44.987Z,979.32
2019-03-08T04:57:45.211Z,979.30
2019-03-08T04:58:45.434Z,979.38
2019-03-08T04:59:45.651Z,979.37
2019-03-08T05:00:45.877Z,979.41
2019-03-08T05:01:46.099Z,979.40
2019-03-08T05:02:46.323Z,979.38
2019-03-08T05:03:46.549Z,979.40
2019-03-08T05:04:46.769Z,979.33
2019-03-08T05:05:46.994Z,979.34
2019-03-08T05:06:47.220Z,979.35
2019-03-08T05:07:47.444Z,979.33
2019-03-08T05:08:47.667Z,979.40
2019-03-08T05:09:47.888Z,979.38
2019-03-08T05:10:48.117Z,979.41
2019-03-08T05:11:48.336Z,979.38
2019-03-08T05:12:48.575Z,979.39
2019-03-08T05:13:48.788Z,979.45
2019-03-08T05:14:49.016Z,979.53
2019-03-08T05:15:49.237Z,979.53
2019-03-08T05:16:49.461Z,979.50
2019-03-08T05:17:49.684Z,979.56
2019-03-08T05:18:49.906Z,979.52
2019-03-08T05:19:50.129Z,979.52
2019-03-08T05:20:50.354Z,979.56
2019-03-08T05:21:50.577Z,979.56
2019-03-08T05:22:50.800Z,979.58
2019-03-08T05:23:51.025Z,979.52
2019-03-08T05:24:51.250Z,979.57
2019-03-08T05:25:51.472Z,979.55
2019-03-08T05:26:51.695Z,979.61
2019-03-08T05:27:51.923Z,979.57
2019-03-08T05:28:52.143Z,979.52
2019-03-08T05:29:52.370Z,979.63
2019-03-08T05:30:52.598Z,979.61
2019-03-08T05:31:52.818Z,979.60
2019-03-08T05:32:53.046Z,979.63
2019-03-08T05:33:53.265Z,979.59
2019-03-08T05:34:53.490Z,979.60
2019-03-08T05:35:53.715Z,979.62
2019-03-08T05:36:53.931Z,979.62
2019-03-08T05:37:54.156Z,979.60
2019-03-08T05:38:54.381Z,979.58
2019-03-08T05:39:54.604Z,979.60
2019-03-08T05:40:54.827Z,979.66
2019-03-08T05:41:55.050Z,979.67
2019-03-08T05:42:55.275Z,979.62
2019-03-08T05:43:55.500Z,979.66
2019-03-08T05:44:55.723Z,979.72
2019-03-08T05:45:55.949Z,979.69
2019-03-08T05:46:56.168Z,979.70
2019-03-08T05:47:56.398Z,979.72
2019-03-08T05:48:56.619Z,979.66
2019-03-08T05:49:56.840Z,979.75
2019-03-08T05:50:57.068Z,979.72
2019-03-08T05:51:57.288Z,979.77
2019-03-08T05:52:57.515Z,979.76
2019-03-08T05:53:57.739Z,979.82
2019-03-08T05:54:57.962Z,979.86
2019-03-08T05:55:58.186Z,979.91
2019-03-08T05:56:58.415Z,979.98
2019-03-08T05:57:58.638Z,979.94
2019-03-08T05:58:58.862Z,979.86
2019-03-08T05:59:59.086Z,979.94
2019-03-08T06:00:59.307Z,980.00
2019-03-08T06:01:59.532Z,980.03
2019-03-08T06:02:59.757Z,980.04
2019-03-08T06:03:59.982Z,980.07
2019-03-08T06:05:00.381Z,980.09
2019-03-08T06:06:00.432Z,980.10
2019-03-08T06:07:00.657Z,980.15
2019-03-08T06:08:00.880Z,980.09
2019-03-08T06:09:01.104Z,980.19
2019-03-08T06:10:01.326Z,980.18
2019-03-08T06:11:01.550Z,980.16
2019-03-08T06:12:01.779Z,980.18
2019-03-08T06:13:01.990Z,980.21
2019-03-08T06:14:02.216Z,980.22
2019-03-08T06:15:02.441Z,980.28
2019-03-08T06:16:02.667Z,980.30
2019-03-08T06:17:02.892Z,980.27
2019-03-08T06:18:03.111Z,980.28
2019-03-08T06:19:03.334Z,980.31
2019-03-08T06:20:03.559Z,980.32
2019-03-08T06:21:03.793Z,980.33
2019-03-08T06:22:04.007Z,980.39
2019-03-08T06:23:04.716Z,980.35
2019-03-08T06:24:04.455Z,980.41
2019-03-08T06:25:04.682Z,980.42
2019-03-08T06:26:04.905Z,980.50
2019-03-08T06:27:05.126Z,980.47
2019-03-08T06:28:05.355Z,980.46
2019-03-08T06:29:05.576Z,980.50
2019-03-08T06:30:05.801Z,980.49
2019-03-08T06:31:06.029Z,980.55
2019-03-08T06:32:06.249Z,980.61
2019-03-08T06:33:06.471Z,980.58
2019-03-08T06:34:06.695Z,980.63
2019-03-08T06:35:06.917Z,980.61
2019-03-08T06:36:07.139Z,980.70
2019-03-08T06:37:07.363Z,980.64
2019-03-08T06:38:07.589Z,980.70
2019-03-08T06:39:07.813Z,980.73
2019-03-08T06:40:08.036Z,980.72
2019-03-08T06:41:08.262Z,980.81
2019-03-08T06:42:08.505Z,980.84
2019-03-08T06:43:08.737Z,980.87
2019-03-08T06:44:08.955Z,980.95
2019-03-08T06:45:09.175Z,980.96
2019-03-08T06:46:09.400Z,981.01
2019-03-08T06:47:09.623Z,980.96
2019-03-08T06:48:09.849Z,981.07
2019-03-08T06:49:10.070Z,981.09
2019-03-08T06:50:10.294Z,981.11
2019-03-08T06:51:10.519Z,981.09
2019-03-08T06:52:10.743Z,981.14
2019-03-08T06:53:10.967Z,981.19
2019-03-08T06:54:11.189Z,981.23
2019-03-08T06:55:11.414Z,981.28
2019-03-08T06:56:11.641Z,981.27
2019-03-08T06:57:11.864Z,981.30
2019-03-08T06:58:12.085Z,981.28
2019-03-08T06:59:12.309Z,981.30
2019-03-08T07:00:12.554Z,981.31
2019-03-08T07:01:12.776Z,981.32
2019-03-08T07:02:12.996Z,981.44
2019-03-08T07:03:13.222Z,981.50
2019-03-08T07:04:13.443Z,981.49
2019-03-08T07:05:13.667Z,981.54
2019-03-08T07:06:13.893Z,981.60
2019-03-08T07:07:14.115Z,981.58
2019-03-08T07:08:14.341Z,981.61
2019-03-08T07:09:14.564Z,981.64
2019-03-08T07:10:14.787Z,981.66
2019-03-08T07:11:15.011Z,981.69
2019-03-08T07:12:15.235Z,981.69
2019-03-08T07:13:15.463Z,981.72
2019-03-08T07:14:15.686Z,981.83
2019-03-08T07:15:15.909Z,981.80
2019-03-08T07:16:16.132Z,981.87
2019-03-08T07:17:16.356Z,981.89
2019-03-08T07:18:16.580Z,981.92
2019-03-08T07:19:16.802Z,981.91
2019-03-08T07:20:17.027Z,981.93
2019-03-08T07:21:17.250Z,981.93
2019-03-08T07:22:17.475Z,981.93
2019-03-08T07:23:17.697Z,981.92
2019-03-08T07:24:17.924Z,981.92
2019-03-08T07:25:18.148Z,981.94
2019-03-08T07:26:18.371Z,981.95
2019-03-08T07:27:18.617Z,981.97
2019-03-08T07:28:18.822Z,981.98
2019-03-08T07:29:19.041Z,981.93
2019-03-08T07:30:20.025Z,981.95
2019-03-08T07:31:20.246Z,981.95
2019-03-08T07:32:19.651Z,982.04
2019-03-08T07:33:19.881Z,982.08
2019-03-08T07:34:20.106Z,982.10
2019-03-08T07:35:20.329Z,982.08
2019-03-08T07:36:20.553Z,982.10
2019-03-08T07:37:20.780Z,982.16
2019-03-08T07:38:21.005Z,982.17
2019-03-08T07:39:21.233Z,982.19
2019-03-08T07:40:21.455Z,982.24
2019-03-08T07:41:21.677Z,982.30
2019-03-08T07:42:21.901Z,982.34
2019-03-08T07:43:22.125Z,982.33
2019-03-08T07:44:22.346Z,982.43
2019-03-08T07:45:22.576Z,982.36
2019-03-08T07:46:22.806Z,982.46
2019-03-08T07:47:23.025Z,982.51
2019-03-08T07:48:23.249Z,982.49
2019-03-08T07:49:23.473Z,982.48
2019-03-08T07:50:23.697Z,982.50
2019-03-08T07:51:23.922Z,982.57
2019-03-08T07:52:24.149Z,982.55
2019-03-08T07:53:24.377Z,982.63
2019-03-08T07:54:24.598Z,982.65
2019-03-08T07:55:24.823Z,982.72
2019-03-08T07:56:25.046Z,982.71
2019-03-08T07:57:25.270Z,982.76
2019-03-08T07:58:25.492Z,982.84
2019-03-08T07:59:25.719Z,982.83
2019-03-08T08:00:25.946Z,982.86
2019-03-08T08:01:26.168Z,982.91
2019-03-08T08:02:26.391Z,983.00
2019-03-08T08:03:26.616Z,983.04
2019-03-08T08:04:26.836Z,983.08
2019-03-08T08:05:27.065Z,983.18
2019-03-08T08:06:27.287Z,983.12
2019-03-08T08:07:27.515Z,983.19
2019-03-08T08:08:27.735Z,983.27
2019-03-08T08:09:27.961Z,983.35
2019-03-08T08:10:28.182Z,983.44
2019-03-08T08:11:28.409Z,983.45
2019-03-08T08:12:28.639Z,983.55
2019-03-08T08:13:28.859Z,983.52
2019-03-08T08:14:29.081Z,983.58
2019-03-08T08:15:29.305Z,983.62
2019-03-08T08:16:29.528Z,983.66
2019-03-08T08:17:29.757Z,983.70
2019-03-08T08:18:29.981Z,983.74
2019-03-08T08:19:30.204Z,983.81
2019-03-08T08:20:30.433Z,983.80
2019-03-08T08:21:30.654Z,983.80
2019-03-08T08:22:30.877Z,983.80
2019-03-08T08:23:34.369Z,983.80
2019-03-08T08:24:31.327Z,983.82
2019-03-08T08:25:36.751Z,983.84
2019-03-08T08:26:31.775Z,983.85
2019-03-08T08:27:31.996Z,983.88
2019-03-08T08:28:32.224Z,983.96
2019-03-08T08:29:35.317Z,983.98
2019-03-08T08:30:32.673Z,983.99
2019-03-08T08:31:32.899Z,984.03
2019-03-08T08:32:33.123Z,984.13
2019-03-08T08:33:33.359Z,984.16
2019-03-08T08:34:33.564Z,984.15
2019-03-08T08:35:33.791Z,984.06
2019-03-08T08:36:34.016Z,984.13
2019-03-08T08:37:34.238Z,984.11
2019-03-08T08:38:34.462Z,984.16
2019-03-08T08:39:34.687Z,984.08
2019-03-08T08:40:34.913Z,984.11
2019-03-08T08:41:35.133Z,984.16
2019-03-08T08:42:35.357Z,984.15
2019-03-08T08:43:35.581Z,984.17
2019-03-08T08:44:35.808Z,984.19
2019-03-08T08:45:36.032Z,984.18
2019-03-08T08:46:36.257Z,984.22
2019-03-08T08:47:36.478Z,984.24
2019-03-08T08:48:36.706Z,984.28
2019-03-08T08:49:36.929Z,984.26
2019-03-08T08:50:37.154Z,984.27
2019-03-08T08:51:37.378Z,984.35
2019-03-08T08:52:37.603Z,984.32
2019-03-08T08:53:37.826Z,984.40
2019-03-08T08:54:38.054Z,984.33
2019-03-08T08:55:38.278Z,984.36
2019-03-08T08:56:38.502Z,984.31
2019-03-08T08:57:38.730Z,984.39
2019-03-08T08:58:38.966Z,984.34
2019-03-08T08:59:39.189Z,984.35
2019-03-08T09:00:39.415Z,984.30
2019-03-08T09:01:39.637Z,984.36
2019-03-08T09:02:39.864Z,984.36
2019-03-08T09:03:40.087Z,984.42
2019-03-08T09:04:40.311Z,984.40
2019-03-08T09:05:40.535Z,984.45
2019-03-08T09:06:40.762Z,984.47
2019-03-08T09:07:40.992Z,984.47
2019-03-08T09:08:41.232Z,984.46
2019-03-08T09:09:41.438Z,984.51
2019-03-08T09:10:41.665Z,984.44
2019-03-08T09:11:48.551Z,984.49
2019-03-08T09:12:42.114Z,984.53
2019-03-08T09:13:42.342Z,984.52
2019-03-08T09:14:42.574Z,984.54
2019-03-08T09:15:42.790Z,984.57
2019-03-08T09:16:43.015Z,984.57
2019-03-08T09:17:43.239Z,984.60
2019-03-08T09:18:43.464Z,984.62
2019-03-08T09:19:43.723Z,984.60
2019-03-08T09:20:43.945Z,984.59
2019-03-08T09:21:44.169Z,984.64
2019-03-08T09:22:44.397Z,984.66
2019-03-08T09:23:44.622Z,984.60
2019-03-08T09:24:44.848Z,984.68
2019-03-08T09:25:45.074Z,984.69
2019-03-08T09:26:45.298Z,984.70
2019-03-08T09:27:45.523Z,984.75
2019-03-08T09:28:45.751Z,984.78
2019-03-08T09:29:45.973Z,984.77
2019-03-08T09:30:46.195Z,984.81
2019-03-08T09:31:46.420Z,984.86
2019-03-08T09:32:46.652Z,984.91
2019-03-08T09:33:46.875Z,984.96
2019-03-08T09:34:47.101Z,985.00
2019-03-08T09:35:47.326Z,985.05
2019-03-08T09:36:47.555Z,985.06
2019-03-08T09:37:47.778Z,985.08
2019-03-08T09:38:48.002Z,985.08
2019-03-08T09:39:48.226Z,985.13
2019-03-08T09:40:48.450Z,985.18
2019-03-08T09:41:48.676Z,985.15
2019-03-08T09:42:48.900Z,985.14
2019-03-08T09:43:49.131Z,985.18
2019-03-08T09:44:49.351Z,985.20
2019-03-08T09:45:49.575Z,985.24
2019-03-08T09:46:49.801Z,985.26
2019-03-08T09:47:50.026Z,985.21
2019-03-08T09:48:50.251Z,985.26
2019-03-08T09:49:50.477Z,985.25
2019-03-08T09:50:50.701Z,985.30
2019-03-08T09:51:50.927Z,985.29
2019-03-08T09:52:51.152Z,985.34
2019-03-08T09:53:51.378Z,985.49
2019-03-08T09:54:51.606Z,985.36
2019-03-08T09:55:51.828Z,985.41
2019-03-08T09:56:52.052Z,985.45
2019-03-08T09:57:52.279Z,985.46
2019-03-08T09:58:52.501Z,985.50
2019-03-08T09:59:52.724Z,985.44
2019-03-08T10:00:52.950Z,985.51
2019-03-08T10:01:53.177Z,985.54
2019-03-08T10:02:53.403Z,985.56
2019-03-08T10:03:53.630Z,985.53
2019-03-08T10:04:53.859Z,985.54
2019-03-08T10:05:54.082Z,985.60
2019-03-08T10:06:54.309Z,985.59
2019-03-08T10:07:54.535Z,985.61
2019-03-08T10:08:56.363Z,985.60
2019-03-08T10:09:54.985Z,985.62
2019-03-08T10:10:55.210Z,985.65
2019-03-08T10:11:55.438Z,985.61
2019-03-08T10:12:55.661Z,985.64
2019-03-08T10:13:55.886Z,985.64
2019-03-08T10:14:56.111Z,985.65
2019-03-08T10:15:56.337Z,985.71
2019-03-08T10:16:56.565Z,985.68
2019-03-08T10:17:56.789Z,985.73
2019-03-08T10:18:57.015Z,985.70
2019-03-08T10:19:57.241Z,985.76
2019-03-08T10:20:57.466Z,985.77
2019-03-08T10:21:57.695Z,985.75
2019-03-08T10:22:57.920Z,985.80
2019-03-08T10:23:58.145Z,985.78
2019-03-08T10:24:58.372Z,985.81
2019-03-08T10:25:58.597Z,985.86
2019-03-08T10:26:58.822Z,985.85
2019-03-08T10:27:59.046Z,985.89
2019-03-08T10:28:59.274Z,985.85
2019-03-08T10:29:59.502Z,985.90
2019-03-08T10:30:59.725Z,985.87
2019-03-08T10:31:59.948Z,985.91
2019-03-08T10:33:00.174Z,985.93
2019-03-08T10:34:00.400Z,986.01
2019-03-08T10:35:00.623Z,986.05
2019-03-08T10:36:00.849Z,986.08
2019-03-08T10:37:01.082Z,986.08
2019-03-08T10:38:01.303Z,986.07
2019-03-08T10:39:01.529Z,986.11
2019-03-08T10:40:01.757Z,986.09
2019-03-08T10:41:01.983Z,986.13
2019-03-08T10:42:02.213Z,986.11
2019-03-08T10:43:02.432Z,986.21
2019-03-08T10:44:08.865Z,986.17
2019-03-08T10:45:02.888Z,986.17
2019-03-08T10:46:03.111Z,986.23
2019-03-08T10:47:03.339Z,986.24
2019-03-08T10:48:03.563Z,986.24
2019-03-08T10:49:03.802Z,986.27
2019-03-08T10:50:04.012Z,986.21
2019-03-08T10:51:04.238Z,986.27
2019-03-08T10:52:04.465Z,986.15
2019-03-08T10:53:04.692Z,986.18
2019-03-08T10:54:04.915Z,986.26
2019-03-08T10:55:05.142Z,986.20
2019-03-08T10:56:05.378Z,986.24
2019-03-08T10:57:05.595Z,986.26
2019-03-08T10:58:05.817Z,986.23
2019-03-08T10:59:06.042Z,986.25
2019-03-08T11:00:06.275Z,986.28
2019-03-08T11:01:06.492Z,986.32
2019-03-08T11:02:06.719Z,986.37
2019-03-08T11:03:06.945Z,986.38
2019-03-08T11:04:07.173Z,986.41
2019-03-08T11:05:07.397Z,986.37
2019-03-08T11:06:07.626Z,986.37
2019-03-08T11:07:07.848Z,986.37
2019-03-08T11:08:09.036Z,986.40
2019-03-08T11:09:08.303Z,986.41
2019-03-08T11:10:08.529Z,986.48
2019-03-08T11:11:08.753Z,986.44
2019-03-08T11:12:08.980Z,986.45
2019-03-08T11:13:09.208Z,986.58
2019-03-08T11:14:09.441Z,986.57
2019-03-08T11:15:09.658Z,986.55
2019-03-08T11:16:09.884Z,986.57
2019-03-08T11:17:10.112Z,986.56
2019-03-08T11:18:10.341Z,986.60
2019-03-08T11:19:10.576Z,986.63
2019-03-08T11:20:10.797Z,986.61
2019-03-08T11:21:11.020Z,986.63
2019-03-08T11:22:11.247Z,986.73
2019-03-08T11:23:11.472Z,986.64
2019-03-08T11:24:11.700Z,986.68
2019-03-08T11:25:11.927Z,986.73
2019-03-08T11:26:12.153Z,986.71
2019-03-08T11:27:12.380Z,986.72
2019-03-08T11:28:20.774Z,986.77
2019-03-08T11:29:12.832Z,986.75
2019-03-08T11:30:13.475Z,986.77
2019-03-08T11:31:13.286Z,986.85
2019-03-08T11:32:22.524Z,986.82
2019-03-08T11:33:13.738Z,986.85
2019-03-08T11:34:13.965Z,986.89
2019-03-08T11:35:14.189Z,986.86
2019-03-08T11:36:14.418Z,986.88
2019-03-08T11:37:14.644Z,986.89
2019-03-08T11:38:14.869Z,986.87
2019-03-08T11:39:15.095Z,986.91
2019-03-08T11:40:15.323Z,986.92
2019-03-08T11:41:15.547Z,986.94
2019-03-08T11:42:15.775Z,986.87
2019-03-08T11:43:15.997Z,986.86
2019-03-08T11:44:16.220Z,986.93
2019-03-08T11:45:16.448Z,986.90
2019-03-08T11:46:16.675Z,986.90
2019-03-08T11:47:16.903Z,986.88
2019-03-08T11:48:17.241Z,986.92
2019-03-08T11:49:17.357Z,987.00
2019-03-08T11:50:17.603Z,986.99
2019-03-08T11:51:17.809Z,986.92
2019-03-08T11:52:18.035Z,986.89
2019-03-08T11:53:18.262Z,986.90
2019-03-08T11:54:18.488Z,986.86
2019-03-08T11:55:18.716Z,986.92
2019-03-08T11:56:18.944Z,986.95
2019-03-08T11:57:19.169Z,986.92
2019-03-08T11:58:19.396Z,986.90
2019-03-08T11:59:19.633Z,986.98
2019-03-08T12:01:20.079Z,986.94
2019-03-08T12:02:20.307Z,987.00
2019-03-08T12:03:20.531Z,987.03
2019-03-08T12:04:20.761Z,987.04
2019-03-08T12:05:20.987Z,986.99
2019-03-08T12:06:21.213Z,987.07
2019-03-08T12:07:21.440Z,987.04
2019-03-08T12:08:21.665Z,987.05
2019-03-08T12:09:21.899Z,987.12
2019-03-08T12:10:22.119Z,987.16
2019-03-08T12:11:22.343Z,987.14
2019-03-08T12:12:22.574Z,987.20
2019-03-08T12:13:22.796Z,987.12
2019-03-08T12:14:23.030Z,987.16
2019-03-08T12:15:23.252Z,987.28
2019-03-08T12:16:23.495Z,987.19
2019-03-08T12:17:23.694Z,987.20
2019-03-08T12:18:23.928Z,987.25
2019-03-08T12:19:24.159Z,987.23
2019-03-08T12:20:24.379Z,987.19
2019-03-08T12:21:24.629Z,987.19
2019-03-08T12:22:24.862Z,987.25
2019-03-08T12:23:25.088Z,987.23
2019-03-08T12:24:25.311Z,987.29
2019-03-08T12:25:25.536Z,987.28
2019-03-08T12:26:25.764Z,987.25
2019-03-08T12:27:25.989Z,987.20
2019-03-08T12:28:26.272Z,987.26
2019-03-08T12:29:26.446Z,987.25
2019-03-08T12:30:26.678Z,987.21
2019-03-08T12:31:26.899Z,987.27
2019-03-08T12:32:27.126Z,987.33